17  °C
Temperature
6  °C
  Dewpoint
   Humidity
Temp | Dewpoint | Humidity
16  km/h
Wind Speed
10  mph
Wind Speed
9  kts
Wind Speed
70°
East North
East

Wind Speed
Clear
Conditions
Pressure 1023.92 (hPa) - 30.24 (in)
Visibility 6.2 (mi) - 10.0 (km)

Current Conditions
EHRD
Location 6km (3.2mi)
Metar :EHRD 181825Z AUTO 07009KT 040V100 9999 NCD 17/06 Q1024 NOSIG
Thu 18th April 19:25 pm

Airport
  Metar Aviation API Data Provided by https://www.checkwx.com/ CSS/SVG/PHP scripts by weather34.com © 2015-2019